createdAt,value
2022-12-18T00:00:43.376Z,78.76
2022-12-18T00:03:52.360Z,77.92
2022-12-18T00:09:41.903Z,77.16
2022-12-18T00:12:38.992Z,77.14
2022-12-18T00:15:15.179Z,76.73
2022-12-18T00:17:59.814Z,76.69
2022-12-18T00:20:45.385Z,76.19
2022-12-18T00:23:25.512Z,76.32
2022-12-18T00:26:19.528Z,76.44
2022-12-18T00:29:12.195Z,75.58
2022-12-18T00:31:56.813Z,75.71
2022-12-18T00:34:44.429Z,75.60
2022-12-18T00:37:33.921Z,75.21
2022-12-18T00:40:20.430Z,75.25
2022-12-18T00:43:00.514Z,75.64
2022-12-18T00:46:01.755Z,75.27
2022-12-18T00:51:36.415Z,74.88
2022-12-18T00:54:28.870Z,75.43
2022-12-18T01:00:10.904Z,74.53
2022-12-18T01:02:54.839Z,75.02
2022-12-18T01:05:43.714Z,75.16
2022-12-18T01:08:38.931Z,75.21
2022-12-18T01:11:27.429Z,75.04
2022-12-18T01:14:17.991Z,74.59
2022-12-18T01:17:05.995Z,74.29
2022-12-18T01:19:51.562Z,73.79
2022-12-18T01:25:33.512Z,73.85
2022-12-18T01:28:19.927Z,74.07
2022-12-18T01:33:53.278Z,74.55
2022-12-18T01:36:43.039Z,74.22
2022-12-18T01:39:31.845Z,74.14
2022-12-18T01:42:27.134Z,73.70
2022-12-18T01:45:21.779Z,74.34
2022-12-18T01:48:28.675Z,73.99
2022-12-18T01:51:04.122Z,74.10
2022-12-18T01:53:47.726Z,73.62
2022-12-18T01:56:31.716Z,72.98
2022-12-18T01:59:35.776Z,72.62
2022-12-18T02:02:18.646Z,73.10
2022-12-18T02:04:56.423Z,72.50
2022-12-18T02:07:51.965Z,71.94
2022-12-18T02:10:45.149Z,71.19
2022-12-18T02:16:51.052Z,72.01
2022-12-18T02:19:54.104Z,72.96
2022-12-18T02:22:54.886Z,73.71
2022-12-18T02:25:46.227Z,75.19
2022-12-18T02:28:41.960Z,75.79
2022-12-18T02:31:41.191Z,76.02
2022-12-18T02:34:21.538Z,75.75
2022-12-18T02:37:06.199Z,76.10
2022-12-18T02:40:10.767Z,76.23
2022-12-18T02:46:45.470Z,76.41
2022-12-18T02:49:50.229Z,76.25
2022-12-18T02:52:39.105Z,76.12
2022-12-18T02:55:32.770Z,76.41
2022-12-18T02:58:19.640Z,75.93
2022-12-18T03:01:13.378Z,76.39
2022-12-18T03:04:00.808Z,76.31
2022-12-18T03:06:45.971Z,76.13
2022-12-18T03:09:40.379Z,76.75
2022-12-18T03:12:33.012Z,76.27
2022-12-18T03:15:22.419Z,76.22
2022-12-18T03:18:22.450Z,75.95
2022-12-18T03:21:27.449Z,75.06
2022-12-18T03:24:06.900Z,74.92
2022-12-18T03:30:02.052Z,74.25
2022-12-18T03:33:11.081Z,73.88
2022-12-18T03:36:03.484Z,74.08
2022-12-18T03:38:58.752Z,74.21
2022-12-18T03:41:43.858Z,74.20
2022-12-18T03:47:32.761Z,73.35
2022-12-18T03:50:27.444Z,73.27
2022-12-18T03:53:35.487Z,72.27
2022-12-18T03:56:35.849Z,71.31
2022-12-18T03:59:37.901Z,71.03
2022-12-18T04:02:17.161Z,71.32
2022-12-18T04:04:53.316Z,71.31
2022-12-18T04:07:39.185Z,71.81
2022-12-18T04:10:19.111Z,71.81
2022-12-18T04:13:04.211Z,70.83
2022-12-18T04:15:57.831Z,69.20
2022-12-18T04:18:51.794Z,67.75
2022-12-18T04:21:37.393Z,67.59
2022-12-18T04:24:27.165Z,66.59
2022-12-18T04:27:11.772Z,64.76
2022-12-18T04:29:58.277Z,64.49
2022-12-18T04:32:49.042Z,64.01
2022-12-18T04:35:47.463Z,63.59
2022-12-18T04:38:26.260Z,62.31
2022-12-18T04:41:04.808Z,63.25
2022-12-18T04:43:51.251Z,63.55
2022-12-18T04:46:37.138Z,63.60
2022-12-18T04:49:16.532Z,62.96
2022-12-18T04:52:00.648Z,61.31
2022-12-18T04:55:05.936Z,60.75
2022-12-18T04:58:00.654Z,59.66
2022-12-18T05:00:52.029Z,58.94
2022-12-18T05:03:59.445Z,58.77
2022-12-18T05:06:44.049Z,58.96
2022-12-18T05:09:21.293Z,59.42
2022-12-18T05:12:00.448Z,58.51
2022-12-18T05:14:48.449Z,59.39
2022-12-18T05:17:34.262Z,59.09
2022-12-18T05:20:27.428Z,58.68
2022-12-18T05:23:09.668Z,59.38
2022-12-18T05:25:54.599Z,60.10
2022-12-18T05:28:45.835Z,59.95
2022-12-18T05:31:37.485Z,59.84
2022-12-18T05:37:47.968Z,60.12
2022-12-18T05:40:41.909Z,60.52
2022-12-18T05:43:24.973Z,61.45
2022-12-18T05:46:06.371Z,61.94
2022-12-18T05:49:00.829Z,62.33
2022-12-18T05:55:05.756Z,63.25
2022-12-18T05:57:52.688Z,63.34
2022-12-18T06:00:44.510Z,63.45
2022-12-18T06:03:34.751Z,63.37
2022-12-18T06:06:22.446Z,63.33
2022-12-18T06:09:14.997Z,63.90
2022-12-18T06:12:11.136Z,64.50
2022-12-18T06:15:05.528Z,64.59
2022-12-18T06:17:44.491Z,64.55
2022-12-18T06:20:36.806Z,63.99
2022-12-18T06:23:26.368Z,63.98
2022-12-18T06:26:24.626Z,64.22
2022-12-18T06:29:16.268Z,64.89
2022-12-18T06:32:20.860Z,65.44
2022-12-18T06:34:57.661Z,65.68
2022-12-18T06:37:41.534Z,65.74
2022-12-18T06:40:33.899Z,66.18
2022-12-18T06:43:22.383Z,66.37
2022-12-18T06:46:09.550Z,66.19
2022-12-18T06:48:47.635Z,66.51
2022-12-18T06:51:32.237Z,66.36
2022-12-18T06:54:12.097Z,66.52
2022-12-18T06:56:48.293Z,65.93
2022-12-18T06:59:28.310Z,65.79
2022-12-18T07:02:28.850Z,65.70
2022-12-18T07:11:48.901Z,64.78
2022-12-18T07:17:43.891Z,65.39
2022-12-18T07:20:24.108Z,66.07
2022-12-18T07:23:02.690Z,66.08
2022-12-18T07:25:48.015Z,67.06
2022-12-18T07:28:44.551Z,67.37
2022-12-18T07:31:31.122Z,67.41
2022-12-18T07:34:25.477Z,67.65
2022-12-18T07:37:01.675Z,68.01
2022-12-18T07:39:43.997Z,68.03
2022-12-18T07:42:36.111Z,68.08
2022-12-18T07:45:27.666Z,68.77
2022-12-18T07:48:24.707Z,68.91
2022-12-18T07:51:14.235Z,69.11
2022-12-18T07:54:13.906Z,69.22
2022-12-18T07:57:09.932Z,69.52
2022-12-18T08:00:03.146Z,69.63
2022-12-18T08:03:08.532Z,69.85
2022-12-18T08:05:52.854Z,69.87
2022-12-18T08:09:04.364Z,69.93
2022-12-18T08:11:43.022Z,69.66
2022-12-18T08:14:19.363Z,69.77
2022-12-18T08:20:01.632Z,70.04
2022-12-18T08:22:48.653Z,70.19
2022-12-18T08:25:33.580Z,70.08
2022-12-18T08:31:24.498Z,70.13
2022-12-18T08:34:09.403Z,69.99
2022-12-18T08:36:52.370Z,70.34
2022-12-18T08:39:53.849Z,70.80
2022-12-18T08:43:10.226Z,71.07
2022-12-18T08:45:50.635Z,71.34
2022-12-18T08:48:27.829Z,71.60
2022-12-18T08:51:20.743Z,71.94
2022-12-18T08:54:07.996Z,72.18
2022-12-18T08:57:02.310Z,71.91
2022-12-18T08:59:49.289Z,72.14
2022-12-18T09:02:28.610Z,72.37
2022-12-18T09:05:13.813Z,71.92
2022-12-18T09:08:08.758Z,71.36
2022-12-18T09:10:55.151Z,71.11
2022-12-18T09:13:33.476Z,71.06
2022-12-18T09:16:19.680Z,70.89
2022-12-18T09:22:10.163Z,70.59
2022-12-18T09:25:04.319Z,70.49
2022-12-18T09:27:48.898Z,70.27
2022-12-18T09:33:35.769Z,70.20
2022-12-18T09:36:26.078Z,69.93
2022-12-18T09:42:31.727Z,69.99
2022-12-18T09:45:30.022Z,70.09
2022-12-18T09:48:14.911Z,70.00
2022-12-18T09:51:19.481Z,70.09
2022-12-18T09:54:02.253Z,70.19
2022-12-18T09:57:20.787Z,70.15
2022-12-18T10:00:03.651Z,70.13
2022-12-18T10:02:40.396Z,70.27
2022-12-18T10:09:01.269Z,70.92
2022-12-18T10:15:22.695Z,70.91
2022-12-18T10:18:31.954Z,71.00
2022-12-18T10:21:27.050Z,70.99
2022-12-18T10:24:40.972Z,70.82
2022-12-18T10:27:27.586Z,70.85
2022-12-18T10:36:13.097Z,70.99
2022-12-18T10:38:50.089Z,70.70
2022-12-18T10:45:45.315Z,69.88
2022-12-18T10:48:38.397Z,70.13
2022-12-18T10:51:35.472Z,70.30
2022-12-18T10:54:13.579Z,70.47
2022-12-18T10:57:49.206Z,70.96
2022-12-18T11:03:48.380Z,70.80
2022-12-18T11:06:34.863Z,70.93
2022-12-18T11:09:46.791Z,70.34
2022-12-18T11:12:56.502Z,70.09
2022-12-18T11:15:39.903Z,70.88
2022-12-18T11:18:52.792Z,70.76
2022-12-18T11:21:50.404Z,71.03
2022-12-18T11:25:22.474Z,71.63
2022-12-18T11:31:32.746Z,72.02
2022-12-18T11:34:29.736Z,72.29
2022-12-18T11:40:26.310Z,72.42
2022-12-18T11:43:10.125Z,72.70
2022-12-18T11:45:57.077Z,72.85
2022-12-18T11:48:57.447Z,73.10
2022-12-18T11:51:55.341Z,72.91
2022-12-18T11:54:32.890Z,73.18
2022-12-18T12:00:35.552Z,73.53
2022-12-18T12:04:15.942Z,73.92
2022-12-18T12:07:18.309Z,74.11
2022-12-18T12:10:29.605Z,73.75
2022-12-18T12:13:32.683Z,73.73
2022-12-18T12:16:34.704Z,73.20
2022-12-18T12:19:48.484Z,73.08
2022-12-18T12:22:48.670Z,72.69
2022-12-18T12:26:05.705Z,72.34
2022-12-18T12:29:03.747Z,72.58
2022-12-18T12:31:58.703Z,72.77
2022-12-18T12:35:07.744Z,72.62
2022-12-18T12:38:05.080Z,72.81
2022-12-18T12:43:55.137Z,72.78
2022-12-18T12:46:42.293Z,72.93
2022-12-18T12:49:26.127Z,72.69
2022-12-18T12:52:30.644Z,72.58
2022-12-18T12:55:49.791Z,72.85
2022-12-18T12:58:45.369Z,72.96
2022-12-18T13:01:35.293Z,73.14
2022-12-18T13:04:29.357Z,73.09
2022-12-18T13:07:23.862Z,73.02
2022-12-18T13:10:40.811Z,73.04
2022-12-18T13:13:36.416Z,73.16
2022-12-18T13:16:14.745Z,72.79
2022-12-18T13:19:01.615Z,73.12
2022-12-18T13:22:02.920Z,73.45
2022-12-18T13:24:43.481Z,73.54
2022-12-18T13:27:59.330Z,73.73
2022-12-18T13:31:15.941Z,73.63
2022-12-18T13:34:25.006Z,73.87
2022-12-18T13:37:01.036Z,73.72
2022-12-18T13:39:47.805Z,73.73
2022-12-18T13:46:10.538Z,74.43
2022-12-18T13:49:09.977Z,74.22
2022-12-18T13:51:59.141Z,73.96
2022-12-18T13:54:53.821Z,73.72
2022-12-18T13:57:53.345Z,73.52
2022-12-18T14:03:54.576Z,73.41
2022-12-18T14:06:40.892Z,73.48
2022-12-18T14:09:36.041Z,73.40
2022-12-18T14:12:32.376Z,73.57
2022-12-18T14:15:20.057Z,73.17
2022-12-18T14:18:14.276Z,73.48
2022-12-18T14:24:27.706Z,73.49
2022-12-18T14:27:29.880Z,73.28
2022-12-18T14:30:08.012Z,73.46
2022-12-18T14:33:02.705Z,73.52
2022-12-18T14:35:50.231Z,73.47
2022-12-18T14:38:45.691Z,73.15
2022-12-18T14:41:43.188Z,73.36
2022-12-18T14:44:44.153Z,73.11
2022-12-18T14:47:43.915Z,72.83
2022-12-18T14:50:28.749Z,72.53
2022-12-18T14:53:09.744Z,72.33
2022-12-18T14:55:55.529Z,72.17
2022-12-18T14:58:45.113Z,72.26
2022-12-18T15:01:37.541Z,72.08
2022-12-18T15:04:31.428Z,72.04
2022-12-18T15:07:19.393Z,71.94
2022-12-18T15:10:17.464Z,72.21
2022-12-18T15:13:49.873Z,72.28
2022-12-18T15:16:46.219Z,72.32
2022-12-18T15:19:29.441Z,72.46
2022-12-18T15:22:07.800Z,72.42
2022-12-18T15:25:10.443Z,72.30
2022-12-18T15:27:59.807Z,72.59
2022-12-18T15:30:52.250Z,72.80
2022-12-18T15:33:58.656Z,73.09
2022-12-18T15:37:03.457Z,73.54
2022-12-18T15:40:10.999Z,73.67
2022-12-18T15:43:11.687Z,74.23
2022-12-18T15:45:51.324Z,74.31
2022-12-18T15:48:36.578Z,74.55
2022-12-18T15:51:18.939Z,74.64
2022-12-18T15:54:01.880Z,75.07
2022-12-18T15:57:13.805Z,75.74
2022-12-18T16:00:06.451Z,76.05
2022-12-18T16:02:53.846Z,76.59
2022-12-18T16:05:48.645Z,76.53
2022-12-18T16:08:36.795Z,76.51
2022-12-18T16:11:13.328Z,76.30
2022-12-18T16:13:54.583Z,75.88
2022-12-18T16:16:30.618Z,75.52
2022-12-18T16:22:43.910Z,75.14
2022-12-18T16:25:46.956Z,75.12
2022-12-18T16:28:48.274Z,75.00
2022-12-18T16:31:36.957Z,75.31
2022-12-18T16:34:44.432Z,75.66
2022-12-18T16:38:00.176Z,76.11
2022-12-18T16:41:10.239Z,76.54
2022-12-18T16:43:54.568Z,76.89
2022-12-18T16:46:41.460Z,76.53
2022-12-18T16:49:37.238Z,76.57
2022-12-18T16:52:20.784Z,76.59
2022-12-18T16:55:04.280Z,76.66
2022-12-18T16:58:10.487Z,75.92
2022-12-18T17:01:24.548Z,75.85
2022-12-18T17:07:14.605Z,75.92
2022-12-18T17:09:51.238Z,75.71
2022-12-18T17:12:47.016Z,75.46
2022-12-18T17:15:27.355Z,75.63
2022-12-18T17:18:35.978Z,76.02
2022-12-18T17:21:37.878Z,76.00
2022-12-18T17:24:24.295Z,76.02
2022-12-18T17:27:18.244Z,75.98
2022-12-18T17:30:04.580Z,76.16
2022-12-18T17:33:05.568Z,76.44
2022-12-18T17:38:50.922Z,76.87
2022-12-18T17:41:29.496Z,76.28
2022-12-18T17:44:15.806Z,75.44
2022-12-18T17:47:03.211Z,74.98
2022-12-18T17:49:49.569Z,74.67
2022-12-18T17:52:38.445Z,73.73
2022-12-18T17:55:20.416Z,73.44
2022-12-18T17:58:09.384Z,72.75
2022-12-18T18:00:46.424Z,72.92
2022-12-18T18:06:45.054Z,73.93
2022-12-18T18:09:22.049Z,74.47
2022-12-18T18:12:16.401Z,74.87
2022-12-18T18:18:29.825Z,74.84
2022-12-18T18:21:32.911Z,75.19
2022-12-18T18:24:22.978Z,75.91
2022-12-18T18:27:06.468Z,75.75
2022-12-18T18:30:00.427Z,75.13
2022-12-18T18:32:50.213Z,75.12
2022-12-18T18:35:55.063Z,74.23
2022-12-18T18:38:41.289Z,73.99
2022-12-18T18:41:24.020Z,74.52
2022-12-18T18:46:59.090Z,74.94
2022-12-18T18:49:52.569Z,75.36
2022-12-18T18:52:37.823Z,75.07
2022-12-18T18:55:25.779Z,74.29
2022-12-18T18:58:09.734Z,74.07
2022-12-18T19:01:05.761Z,73.60
2022-12-18T19:03:44.337Z,73.21
2022-12-18T19:06:29.945Z,72.92
2022-12-18T19:09:26.438Z,72.52
2022-12-18T19:12:35.486Z,72.31
2022-12-18T19:15:15.656Z,73.23
2022-12-18T19:18:01.527Z,73.04
2022-12-18T19:20:46.911Z,73.04
2022-12-18T19:23:31.812Z,73.64
2022-12-18T19:26:27.368Z,73.74
2022-12-18T19:29:21.379Z,74.17
2022-12-18T19:32:02.537Z,74.50
2022-12-18T19:34:54.593Z,74.85
2022-12-18T19:37:46.387Z,74.89
2022-12-18T19:40:38.508Z,74.58
2022-12-18T19:43:15.983Z,74.24
2022-12-18T19:46:09.396Z,74.42
2022-12-18T19:49:04.920Z,74.57
2022-12-18T19:51:50.837Z,74.41
2022-12-18T19:54:30.472Z,74.60
2022-12-18T19:57:17.696Z,74.72
2022-12-18T20:00:14.151Z,74.93
2022-12-18T20:03:15.576Z,75.38
2022-12-18T20:06:08.089Z,75.06
2022-12-18T20:08:56.798Z,75.38
2022-12-18T20:15:13.006Z,76.15
2022-12-18T20:17:51.090Z,76.31
2022-12-18T20:20:33.414Z,76.69
2022-12-18T20:23:11.429Z,76.56
2022-12-18T20:26:11.614Z,76.58
2022-12-18T20:29:01.624Z,76.54
2022-12-18T20:31:55.140Z,76.91
2022-12-18T20:37:37.537Z,77.68
2022-12-18T20:40:32.694Z,77.54
2022-12-18T20:43:57.763Z,77.55
2022-12-18T20:46:53.469Z,77.60
2022-12-18T20:49:37.774Z,77.84
2022-12-18T20:52:19.187Z,78.01
2022-12-18T20:55:21.135Z,77.97
2022-12-18T20:58:02.869Z,78.00
2022-12-18T21:01:00.854Z,78.52
2022-12-18T21:03:55.672Z,77.97
2022-12-18T21:06:55.826Z,77.94
2022-12-18T21:09:38.758Z,77.77
2022-12-18T21:12:56.759Z,77.80
2022-12-18T21:15:55.673Z,77.79
2022-12-18T21:18:38.054Z,77.98
2022-12-18T21:21:20.703Z,77.79
2022-12-18T21:24:11.330Z,77.63
2022-12-18T21:29:52.904Z,78.24
2022-12-18T21:32:39.328Z,77.70
2022-12-18T21:35:32.299Z,77.36
2022-12-18T21:38:16.228Z,77.19
2022-12-18T21:44:10.412Z,76.30
2022-12-18T21:47:13.763Z,75.09
2022-12-18T21:49:59.060Z,74.21
2022-12-18T21:53:05.474Z,74.05
2022-12-18T21:58:56.673Z,73.74
2022-12-18T22:01:38.808Z,73.68
2022-12-18T22:04:25.358Z,73.47
2022-12-18T22:07:09.737Z,73.66
2022-12-18T22:13:23.551Z,74.00
2022-12-18T22:16:06.055Z,74.13
2022-12-18T22:18:53.534Z,74.40
2022-12-18T22:21:44.864Z,74.74
2022-12-18T22:24:28.142Z,75.34
2022-12-18T22:27:17.190Z,75.81
2022-12-18T22:30:12.600Z,76.40
2022-12-18T22:32:50.123Z,76.26
2022-12-18T22:35:30.114Z,76.53
2022-12-18T22:38:15.195Z,77.36
2022-12-18T22:40:52.562Z,77.39
2022-12-18T22:43:37.467Z,77.58
2022-12-18T22:46:17.016Z,77.32
2022-12-18T22:49:11.079Z,77.05
2022-12-18T22:51:57.490Z,77.00
2022-12-18T22:54:36.207Z,77.32
2022-12-18T22:57:25.198Z,77.18
2022-12-18T23:00:16.853Z,77.09
2022-12-18T23:03:10.995Z,76.79
2022-12-18T23:05:49.349Z,77.03
2022-12-18T23:08:31.771Z,77.18
2022-12-18T23:11:39.179Z,76.70
2022-12-18T23:14:31.963Z,76.24
2022-12-18T23:17:20.923Z,75.43
2022-12-18T23:23:10.873Z,75.20
2022-12-18T23:25:57.321Z,74.89
2022-12-18T23:28:52.229Z,75.06
2022-12-18T23:31:50.699Z,75.14
2022-12-18T23:34:39.510Z,74.53
2022-12-18T23:37:57.390Z,73.60
2022-12-18T23:40:43.892Z,73.11
2022-12-18T23:43:24.831Z,72.15
2022-12-18T23:49:20.313Z,70.86
2022-12-18T23:52:08.943Z,69.87
2022-12-18T23:54:47.916Z,69.67
2022-12-18T23:57:42.283Z,69.39
